Kenaston, North Dakota
Current Conditions -  °F | °C
As of 12:15 PM on Wednesday 28 Jan 2015 (Local Time) from K08D Reporting Station
Haze Haze  
Wind Chill: 17°   Ceiling: 300
Heat Index: 28°   Visibility: 3mi
Dew Point: 28°   Wind: 14mph
Humidity: 100%   Direction: 350°N
Pressure: 29.9"   Gusts: NA
Location:  48.6651°N, 102.033°W
Report Text: K08D 281815Z AUTO 35012KT 3SM BR OVC003 M02/M02 A2990 RMK AO2
Loading
Personal Weather Stations






























Interactive Weather Map New forecast layout! Learn more

10-Day Weather Forecast

Advertisements
Track Severe Weather on mobile